Time;durP1;ratioP1;P1;durP2;ratioP2;P2;SDS_P1;SDS_P2;PMS_P1;PMS_P2;Temp;Humidity;BMP_temperature;BMP_pressure;BME280_temperature;BME280_humidity;BME280_pressure;Samples;Min_cycle;Max_cycle;Signal;HPM_P1;HPM_P2
2021/12/10 00:01:49;;;;;;;4.95;2.78;;;;;;;16.07;28.99;100616.06;5151471;27;20054;-66
2021/12/10 00:04:17;;;;;;;5.80;2.88;;;;;;;16.14;28.63;100626.09;5150898;27;20539;-67
2021/12/10 00:06:50;;;;;;;4.28;2.50;;;;;;;16.20;28.44;100624.72;5151533;27;20027;-66
2021/12/10 00:09:20;;;;;;;3.53;2.47;;;;;;;16.27;28.17;100623.22;5151344;27;20446;-66
2021/12/10 00:11:50;;;;;;;3.80;2.65;;;;;;;16.33;27.97;100624.53;5150920;27;20033;-67
2021/12/10 00:14:16;;;;;;;5.80;3.10;;;;;;;16.38;28.19;100629.47;5163092;27;20026;-66
2021/12/10 00:16:43;;;;;;;3.72;2.38;;;;;;;16.41;28.08;100632.72;5171810;27;20773;-66
2021/12/10 00:19:24;;;;;;;3.53;2.55;;;;;;;16.46;27.64;100641.19;5152122;27;20037;-67
2021/12/10 00:21:51;;;;;;;4.55;2.72;;;;;;;16.49;27.28;100650.75;5150872;27;20443;-68
2021/12/10 00:24:20;;;;;;;4.03;2.85;;;;;;;16.50;27.38;100646.28;5150642;27;20031;-67
2021/12/10 00:26:46;;;;;;;5.32;3.38;;;;;;;16.48;27.33;100639.25;5146367;27;20027;-67
2021/12/10 00:29:13;;;;;;;9.20;2.70;;;;;;;16.47;27.48;100639.34;5158271;27;20489;-67
2021/12/10 00:31:50;;;;;;;4.40;2.85;;;;;;;16.45;27.69;100631.47;5171823;27;20041;-68
2021/12/10 00:34:41;;;;;;;4.97;3.10;;;;;;;16.44;27.21;100631.63;5151810;27;20358;-67
2021/12/10 00:37:10;;;;;;;4.25;2.83;;;;;;;16.46;27.25;100633.19;5130220;27;20035;-65
2021/12/10 00:39:46;;;;;;;5.90;2.72;;;;;;;16.45;27.43;100636.81;5130414;27;20058;-64
2021/12/10 00:42:15;;;;;;;5.03;2.90;;;;;;;16.47;27.47;100642.03;5129735;27;20031;-65
2021/12/10 00:44:41;;;;;;;5.90;2.60;;;;;;;16.47;27.71;100636.69;5130038;28;20031;-65
2021/12/10 00:47:07;;;;;;;3.60;2.67;;;;;;;16.44;27.86;100643.16;5133449;27;20033;-65
2021/12/10 00:49:34;;;;;;;5.45;3.42;;;;;;;16.44;27.51;100644.97;5171490;27;20137;-65
2021/12/10 00:52:00;;;;;;;5.55;3.35;;;;;;;16.43;27.02;100645.97;5132812;27;20137;-64
2021/12/10 00:54:25;;;;;;;5.30;3.15;;;;;;;16.43;27.57;100646.78;5143939;27;20473;-64
2021/12/10 00:56:51;;;;;;;5.43;2.85;;;;;;;16.45;27.10;100641.34;5155500;27;20109;-65
2021/12/10 00:59:20;;;;;;;7.07;3.22;;;;;;;16.48;27.48;100643.72;5152675;27;20031;-64
2021/12/10 01:01:49;;;;;;;8.07;3.28;;;;;;;16.48;27.57;100639.25;5149934;27;20080;-66
2021/12/10 01:04:20;;;;;;;5.18;3.25;;;;;;;16.50;27.16;100646.28;5150519;27;20057;-66
2021/12/10 01:06:48;;;;;;;6.53;3.25;;;;;;;16.51;27.16;100648.81;5150316;27;20027;-67
2021/12/10 01:32:36;;;;;;;8.65;3.55;;;;;;;16.26;27.57;100660.75;5185968;27;20227;-67
2021/12/10 01:35:03;;;;;;;7.05;3.17;;;;;;;16.40;27.95;100657.72;5155373;27;20192;-67
2021/12/10 01:37:29;;;;;;;5.07;3.35;;;;;;;16.55;28.10;100666.28;5152152;27;20022;-69
2021/12/10 01:39:56;;;;;;;7.55;4.75;;;;;;;16.68;27.44;100665.22;5165842;27;20400;-67
2021/12/10 01:44:57;;;;;;;6.72;3.15;;;;;;;16.89;27.70;100663.34;5171740;27;20042;-75
2021/12/10 01:47:28;;;;;;;4.30;3.20;;;;;;;16.97;27.73;100654.69;5171644;27;20056;-73
2021/12/10 01:49:55;;;;;;;8.15;3.30;;;;;;;17.07;27.82;100660.03;5172177;27;20184;-73
2021/12/10 01:52:21;;;;;;;5.88;3.20;;;;;;;17.14;27.40;100661.22;5171687;27;20026;-73
2021/12/10 01:54:58;;;;;;;10.23;3.80;;;;;;;17.20;27.89;100660.69;5168200;27;20382;-73
2021/12/10 01:57:27;;;;;;;5.90;3.42;;;;;;;17.27;27.40;100668.13;5171623;27;20028;-73
2021/12/10 01:59:53;;;;;;;8.40;2.60;;;;;;;17.31;27.81;100657.03;5171988;27;20030;-73
2021/12/10 02:02:22;;;;;;;4.97;2.92;;;;;;;17.37;27.43;100664.50;5171042;27;20018;-74
2021/12/10 02:04:49;;;;;;;5.50;2.80;;;;;;;17.42;27.36;100664.09;5171898;27;20046;-74
2021/12/10 02:07:21;;;;;;;6.43;3.60;;;;;;;17.46;27.35;100661.97;5171283;27;20027;-73
2021/12/10 02:09:48;;;;;;;6.18;3.80;;;;;;;17.51;27.37;100675.78;5171730;27;20079;-74
2021/12/10 02:12:15;;;;;;;10.45;3.42;;;;;;;17.53;27.24;100676.50;5170790;27;20062;-73
2021/12/10 02:14:42;;;;;;;5.53;3.28;;;;;;;17.56;27.23;100672.69;5171027;27;20385;-74
2021/12/10 02:17:08;;;;;;;5.72;3.30;;;;;;;17.56;27.52;100673.56;5152302;27;20019;-74
2021/12/10 02:19:35;;;;;;;5.45;3.20;;;;;;;17.54;27.31;100675.53;5171200;27;20434;-74
2021/12/10 02:22:01;;;;;;;4.85;2.95;;;;;;;17.53;27.38;100676.50;5168657;27;20117;-74
2021/12/10 02:24:27;;;;;;;5.03;3.03;;;;;;;17.55;27.37;100671.88;5170860;27;20392;-74
2021/12/10 02:26:56;;;;;;;4.25;2.72;;;;;;;17.55;27.31;100671.88;5171340;27;20101;-73
2021/12/10 02:29:24;;;;;;;6.78;3.75;;;;;;;17.53;26.94;100666.63;5170822;27;20090;-74
2021/12/10 02:31:50;;;;;;;5.30;3.42;;;;;;;17.52;27.40;100664.94;5152607;27;20057;-74
2021/12/10 02:34:16;;;;;;;5.47;3.25;;;;;;;17.52;27.66;100661.44;5171019;27;20035;-74
2021/12/10 02:36:42;;;;;;;5.13;3.55;;;;;;;17.51;27.68;100659.75;5171021;27;20037;-74
2021/12/10 02:39:14;;;;;;;5.13;2.85;;;;;;;17.49;27.61;100667.91;5170808;27;20392;-74
2021/12/10 02:41:40;;;;;;;4.88;2.80;;;;;;;17.49;27.80;100669.72;5170198;27;20053;-73
2021/12/10 02:44:08;;;;;;;5.20;3.03;;;;;;;17.49;27.47;100667.06;5162137;27;20026;-73
2021/12/10 02:46:34;;;;;;;5.40;3.03;;;;;;;17.50;27.62;100658.88;5177858;27;20030;-73
2021/12/10 02:49:00;;;;;;;5.70;3.47;;;;;;;17.50;28.00;100668.75;5177993;27;20496;-73
2021/12/10 02:51:26;;;;;;;5.72;3.53;;;;;;;17.49;27.31;100665.25;5177452;27;20087;-74
2021/12/10 02:53:53;;;;;;;5.03;3.50;;;;;;;17.50;27.51;100674.09;5159658;27;20080;-74
2021/12/10 02:56:22;;;;;;;8.52;3.50;;;;;;;17.51;27.39;100675.78;5156915;27;20083;-74
2021/12/10 02:58:53;;;;;;;8.43;3.67;;;;;;;17.50;27.84;100677.59;5155876;27;20041;-72
2021/12/10 03:01:22;;;;;;;5.38;3.25;;;;;;;17.54;27.99;100683.56;5156827;27;20033;-71
2021/12/10 03:03:48;;;;;;;5.05;2.95;;;;;;;17.57;27.93;100682.41;5156464;27;20031;-73
2021/12/10 03:06:16;;;;;;;6.55;3.95;;;;;;;17.59;27.78;100683.97;5156319;27;20035;-72
2021/12/10 03:08:44;;;;;;;4.47;2.88;;;;;;;17.61;27.54;100683.84;5137707;27;20034;-72
2021/12/10 03:11:11;;;;;;;4.88;3.25;;;;;;;17.64;27.51;100688.94;5156236;27;20037;-72
2021/12/10 03:13:38;;;;;;;5.65;3.42;;;;;;;17.63;27.63;100687.22;5155950;27;20027;-73
2021/12/10 03:16:06;;;;;;;6.68;3.55;;;;;;;17.65;27.14;100688.78;5156255;27;20046;-73
2021/12/10 03:18:33;;;;;;;5.45;3.65;;;;;;;17.68;27.29;100695.66;5156389;27;20034;-72
2021/12/10 03:21:00;;;;;;;5.43;3.25;;;;;;;17.69;27.58;100692.88;5156028;27;20474;-72
2021/12/10 03:23:25;;;;;;;6.55;3.88;;;;;;;17.73;27.60;100697.94;5175319;27;20396;-72
2021/12/10 03:25:51;;;;;;;7.32;3.30;;;;;;;17.73;27.37;100698.78;5176902;27;20030;-72
2021/12/10 03:28:17;;;;;;;7.10;3.28;;;;;;;17.76;27.26;100694.97;5177037;27;20054;-72
2021/12/10 03:30:49;;;;;;;4.97;3.38;;;;;;;17.77;26.91;100694.84;5162451;27;20549;-72
2021/12/10 03:33:15;;;;;;;5.65;3.88;;;;;;;17.79;27.29;100694.69;5155767;27;20033;-73
2021/12/10 03:35:44;;;;;;;5.00;3.53;;;;;;;17.80;27.38;100699.91;5155939;27;20026;-73
2021/12/10 03:38:14;;;;;;;6.00;4.03;;;;;;;17.82;27.43;100702.47;5155947;27;20026;-72
2021/12/10 03:40:40;;;;;;;5.40;3.50;;;;;;;17.82;27.36;100702.47;5155754;27;20029;-73
2021/12/10 03:43:06;;;;;;;5.13;3.42;;;;;;;17.83;27.37;100704.16;5151474;27;20401;-73
2021/12/10 03:45:37;;;;;;;6.43;3.50;;;;;;;17.84;27.41;100703.16;5155848;27;20507;-72
2021/12/10 03:48:08;;;;;;;5.13;3.50;;;;;;;17.84;27.15;100701.31;5155658;27;20037;-73
2021/12/10 03:50:34;;;;;;;5.22;3.08;;;;;;;17.83;27.44;100691.59;5156104;27;20113;-73
2021/12/10 03:53:00;;;;;;;5.57;3.30;;;;;;;17.87;26.94;100704.72;5154512;27;20041;-73
2021/12/10 03:55:26;;;;;;;7.68;3.42;;;;;;;17.88;26.93;100701.88;5154980;27;20030;-73
2021/12/10 03:57:52;;;;;;;8.38;4.50;;;;;;;17.88;26.68;100701.88;5155355;27;20023;-73
2021/12/10 04:00:21;;;;;;;5.68;3.60;;;;;;;17.88;26.98;100704.56;5155462;27;20026;-73
2021/12/10 04:02:47;;;;;;;5.30;3.22;;;;;;;17.87;27.07;100700.19;5155615;27;20486;-72
2021/12/10 04:05:13;;;;;;;6.82;4.20;;;;;;;17.88;27.25;100691.19;5176149;27;20105;-73
2021/12/10 04:07:39;;;;;;;6.80;3.88;;;;;;;17.88;27.02;100695.69;5169324;27;20046;-73
2021/12/10 04:10:08;;;;;;;7.43;3.88;;;;;;;17.87;27.34;100694.84;5155321;27;20086;-73
2021/12/10 04:12:34;;;;;;;5.95;3.83;;;;;;;17.83;27.35;100694.28;5155501;27;20031;-73
2021/12/10 04:15:00;;;;;;;5.45;3.97;;;;;;;17.82;27.47;100691.75;5155409;27;20094;-73
2021/12/10 04:17:26;;;;;;;7.25;3.47;;;;;;;17.81;27.55;100698.09;5154450;27;20030;-74
2021/12/10 04:19:51;;;;;;;5.95;4.18;;;;;;;17.77;27.39;100699.34;5154568;27;20437;-74
2021/12/10 04:22:20;;;;;;;5.30;3.47;;;;;;;17.72;27.60;100697.09;5154669;27;20489;-74
2021/12/10 04:24:45;;;;;;;5.40;3.42;;;;;;;17.72;27.70;100698.94;5155506;27;20041;-73
2021/12/10 04:27:17;;;;;;;6.15;3.53;;;;;;;17.68;27.91;100695.66;5154397;27;20031;-73
2021/12/10 04:29:43;;;;;;;5.53;3.65;;;;;;;17.65;28.03;100702.16;5154420;27;20038;-72
2021/12/10 04:32:11;;;;;;;7.13;4.38;;;;;;;17.65;27.50;100701.28;5148083;27;20047;-73
2021/12/10 04:34:37;;;;;;;6.57;4.68;;;;;;;17.63;28.05;100704.13;5134418;27;20452;-73
2021/12/10 04:37:06;;;;;;;6.95;3.88;;;;;;;17.61;28.01;100711.44;5154679;27;20037;-74
2021/12/10 04:39:34;;;;;;;4.68;3.20;;;;;;;17.59;28.23;100716.06;5155000;27;20030;-74
2021/12/10 04:42:00;;;;;;;7.93;4.22;;;;;;;17.59;28.44;100725.94;5153753;27;20038;-74
2021/12/10 04:44:26;;;;;;;9.32;4.65;;;;;;;17.56;28.56;100729.75;5154408;27;20399;-74
2021/12/10 04:46:52;;;;;;;6.72;4.00;;;;;;;17.56;28.42;100728.91;5154372;27;20485;-74
2021/12/10 04:49:17;;;;;;;5.55;3.70;;;;;;;17.53;28.30;100730.03;5154597;27;20041;-75
2021/12/10 04:51:50;;;;;;;6.68;4.80;;;;;;;17.55;28.34;100741.44;5154261;27;20460;-75
2021/12/10 04:54:17;;;;;;;5.95;4.03;;;;;;;17.52;28.08;100736.34;5154184;27;20038;-75
2021/12/10 04:56:43;;;;;;;6.90;4.60;;;;;;;17.53;28.26;100746.91;5154547;27;20420;-75
2021/12/10 04:59:13;;;;;;;5.70;4.47;;;;;;;17.55;28.30;100744.13;5153744;27;20039;-75
2021/12/10 05:01:39;;;;;;;7.72;4.18;;;;;;;17.56;28.03;100748.50;5154147;27;20064;-74
2021/12/10 05:04:07;;;;;;;6.75;4.15;;;;;;;17.59;28.68;100748.19;5154158;27;20038;-73
2021/12/10 05:06:34;;;;;;;5.38;3.60;;;;;;;17.60;28.18;100751.72;5154321;27;20054;-74
2021/12/10 05:09:01;;;;;;;6.30;3.75;;;;;;;17.62;28.31;100753.28;5153750;27;20035;-73
2021/12/10 05:11:26;;;;;;;7.03;4.68;;;;;;;17.64;28.03;100762.03;5168847;27;20488;-74
2021/12/10 05:13:52;;;;;;;5.43;3.92;;;;;;;17.66;28.02;100762.72;5175115;27;20056;-74
2021/12/10 05:16:24;;;;;;;5.88;3.95;;;;;;;17.70;28.12;100757.94;5175251;27;20030;-74
2021/12/10 05:18:57;;;;;;;6.55;4.40;;;;;;;17.73;27.77;100756.81;5163427;27;20029;-74
2021/12/10 05:21:24;;;;;;;8.13;4.05;;;;;;;17.76;28.06;100762.75;5162770;27;20046;-72
2021/12/10 05:23:49;;;;;;;8.50;4.13;;;;;;;17.78;28.22;100754.59;5114533;28;20431;-73
2021/12/10 05:26:16;;;;;;;6.05;3.53;;;;;;;17.81;28.38;100757.81;5133194;27;20039;-72
2021/12/10 05:28:41;;;;;;;10.13;4.70;;;;;;;17.87;27.86;100747.56;5147732;27;20030;-72
2021/12/10 05:31:07;;;;;;;8.23;4.95;;;;;;;17.92;26.85;100748.81;5153992;27;20046;-71
2021/12/10 05:33:33;;;;;;;7.15;4.50;;;;;;;17.99;26.17;100751.81;5153672;27;20035;-72
2021/12/10 05:36:01;;;;;;;10.05;5.78;;;;;;;17.85;26.05;100756.56;5153539;27;20031;-71
2021/12/10 05:38:28;;;;;;;9.45;6.78;;;;;;;16.78;26.83;100756.97;5153239;27;20026;-70
2021/12/10 05:40:55;;;;;;;13.75;6.15;;;;;;;15.68;27.45;100768.66;5153999;27;20034;-71
2021/12/10 05:43:21;;;;;;;10.55;6.13;;;;;;;14.91;28.56;100763.13;5152372;27;20493;-69
2021/12/10 05:45:48;;;;;;;18.40;7.55;;;;;;;15.11;29.71;100760.69;5153789;27;20026;-69
2021/12/10 05:48:14;;;;;;;8.00;5.50;;;;;;;15.64;29.81;100761.91;5135058;27;20489;-70
2021/12/10 05:50:40;;;;;;;7.72;5.35;;;;;;;16.08;29.47;100764.59;5153661;27;20033;-71
2021/12/10 05:53:07;;;;;;;11.00;5.57;;;;;;;16.37;29.66;100778.22;5131424;27;20514;-70
2021/12/10 05:55:34;;;;;;;10.57;5.63;;;;;;;16.60;29.19;100780.78;5132893;28;20080;-70
2021/12/10 05:58:00;;;;;;;14.82;6.15;;;;;;;16.75;29.63;100787.47;5150341;27;20146;-68
2021/12/10 06:00:45;;;;;;;7.90;5.38;;;;;;;16.86;29.33;100785.72;5153770;27;20041;-69
2021/12/10 06:03:11;;;;;;;9.45;5.88;;;;;;;16.95;29.37;100790.31;5152049;27;20556;-68
2021/12/10 06:05:38;;;;;;;12.35;6.22;;;;;;;17.01;29.00;100781.75;5133306;28;20111;-69
2021/12/10 06:08:05;;;;;;;10.05;4.63;;;;;;;17.07;28.71;100783.06;5132701;27;20031;-69
2021/12/10 06:10:31;;;;;;;7.85;5.40;;;;;;;17.10;28.73;100781.97;5139621;27;20565;-69
2021/12/10 06:12:57;;;;;;;8.32;5.50;;;;;;;17.13;28.92;100795.06;5153608;27;20029;-69
2021/12/10 06:15:25;;;;;;;7.88;5.13;;;;;;;17.14;28.69;100786.03;5153910;27;20401;-69
2021/12/10 06:17:51;;;;;;;8.93;5.18;;;;;;;17.14;28.62;100786.91;5154130;27;20054;-68
2021/12/10 06:20:24;;;;;;;11.68;5.20;;;;;;;17.16;28.17;100800.13;5157504;27;20037;-69
2021/12/10 06:22:51;;;;;;;11.02;6.25;;;;;;;17.13;28.68;100792.41;5157096;27;20045;-68
2021/12/10 06:25:16;;;;;;;7.45;4.93;;;;;;;17.13;28.49;100803.09;5157129;27;20042;-68
2021/12/10 06:27:44;;;;;;;9.70;6.13;;;;;;;17.06;28.42;100795.59;5157002;27;20022;-70
2021/12/10 06:30:24;;;;;;;8.90;5.63;;;;;;;17.01;28.14;100802.31;5156898;27;20026;-69
2021/12/10 06:32:54;;;;;;;7.65;5.05;;;;;;;17.00;27.86;100806.78;5157005;27;20038;-68
2021/12/10 06:35:21;;;;;;;10.00;5.40;;;;;;;16.98;27.97;100805.25;5156922;27;20106;-69
2021/12/10 06:37:47;;;;;;;7.68;5.13;;;;;;;16.96;28.41;100794.69;5158144;27;20422;-69
2021/12/10 06:40:15;;;;;;;10.20;5.32;;;;;;;16.96;27.91;100808.06;5156380;27;20037;-70
2021/12/10 06:42:41;;;;;;;10.05;5.20;;;;;;;16.91;28.31;100803.06;5150664;27;20553;-69
2021/12/10 06:45:13;;;;;;;7.38;4.50;;;;;;;16.87;28.49;100809.66;5136103;27;20110;-70
2021/12/10 06:47:40;;;;;;;10.05;5.40;;;;;;;16.86;28.18;100810.63;5135931;27;20031;-69
2021/12/10 06:50:08;;;;;;;8.65;5.43;;;;;;;16.86;28.31;100809.78;5154734;27;20377;-69
2021/12/10 06:52:33;;;;;;;8.98;5.47;;;;;;;16.82;28.16;100803.84;5156395;27;20405;-70
2021/12/10 06:54:59;;;;;;;8.77;5.43;;;;;;;16.83;27.59;100816.25;5156635;27;20035;-70
2021/12/10 06:57:25;;;;;;;8.18;5.13;;;;;;;16.81;28.01;100810.16;5156756;27;20038;-68
2021/12/10 06:59:52;;;;;;;8.65;4.95;;;;;;;16.81;28.18;100804.81;5156217;27;20037;-69
2021/12/10 07:02:18;;;;;;;10.73;5.97;;;;;;;16.78;28.25;100803.28;5156102;27;20177;-68
2021/12/10 07:04:43;;;;;;;12.00;5.40;;;;;;;16.80;28.00;100799.63;5156796;27;20132;-68
2021/12/10 07:07:10;;;;;;;9.43;5.78;;;;;;;16.81;27.60;100806.66;5156715;27;20117;-69
2021/12/10 07:09:36;;;;;;;10.43;6.00;;;;;;;16.82;27.82;100805.69;5155688;27;20113;-68
2021/12/10 07:12:04;;;;;;;7.50;5.15;;;;;;;16.84;27.70;100806.38;5156247;27;20023;-68
2021/12/10 07:14:30;;;;;;;9.48;5.25;;;;;;;16.85;28.11;100816.09;5156230;27;20039;-70
2021/12/10 07:16:55;;;;;;;8.65;5.07;;;;;;;16.86;27.92;100815.13;5156540;27;20485;-68
2021/12/10 07:19:21;;;;;;;8.20;5.45;;;;;;;16.86;28.21;100815.13;5155529;27;20037;-67
2021/12/10 07:21:47;;;;;;;7.30;4.93;;;;;;;16.89;28.22;100813.06;5172772;27;20029;-68
2021/12/10 07:24:16;;;;;;;9.88;5.35;;;;;;;16.94;28.29;100818.00;5155992;27;20404;-69
2021/12/10 07:26:42;;;;;;;10.40;5.60;;;;;;;16.95;28.06;100810.84;5156099;27;20031;-69
2021/12/10 07:29:09;;;;;;;7.07;4.70;;;;;;;16.98;28.18;100816.81;5155069;27;20046;-68
2021/12/10 07:31:36;;;;;;;7.80;4.45;;;;;;;17.02;28.23;100828.06;5151789;27;20055;-69
2021/12/10 07:34:03;;;;;;;8.55;5.18;;;;;;;17.02;28.30;100823.56;5145954;27;20035;-68
2021/12/10 07:36:29;;;;;;;7.68;5.18;;;;;;;17.06;28.15;100822.31;5170296;27;20034;-69
2021/12/10 07:38:59;;;;;;;8.25;5.03;;;;;;;17.11;27.97;100810.41;5158368;27;20556;-69
2021/12/10 07:41:25;;;;;;;8.82;5.43;;;;;;;17.13;28.06;100821.81;5155636;27;20087;-69
2021/12/10 07:43:51;;;;;;;8.23;5.00;;;;;;;17.10;27.84;100820.22;5155660;27;20029;-69
2021/12/10 07:46:16;;;;;;;9.40;5.05;;;;;;;17.10;27.89;100825.56;5155352;27;20027;-69
2021/12/10 07:48:43;;;;;;;7.20;5.65;;;;;;;17.09;28.06;100823.88;5155239;27;20043;-68
2021/12/10 07:51:21;;;;;;;11.15;5.20;;;;;;;17.10;27.81;100828.25;5155543;27;20350;-69
2021/12/10 07:53:47;;;;;;;7.70;4.75;;;;;;;17.09;28.03;100823.88;5154962;27;20027;-69
2021/12/10 07:56:15;;;;;;;6.13;4.45;;;;;;;17.08;28.01;100825.72;5155746;27;20393;-69
2021/12/10 07:58:42;;;;;;;8.57;4.50;;;;;;;17.09;28.00;100823.88;5155553;27;20033;-69
2021/12/10 08:01:15;;;;;;;9.55;4.47;;;;;;;17.08;27.81;100823.03;5155866;27;20480;-69
2021/12/10 08:03:41;;;;;;;9.05;4.70;;;;;;;17.06;27.76;100822.31;5154770;27;20027;-70
2021/12/10 08:06:07;;;;;;;7.18;5.40;;;;;;;17.10;27.45;100814.88;5155533;27;20033;-69
2021/12/10 08:08:34;;;;;;;10.75;4.82;;;;;;;17.10;27.36;100824.75;5155014;27;20101;-69
2021/12/10 08:11:00;;;;;;;8.30;4.70;;;;;;;17.11;27.49;100818.41;5154977;27;20035;-69
2021/12/10 08:13:26;;;;;;;8.85;4.57;;;;;;;17.11;27.39;100818.41;5154599;27;20503;-69
2021/12/10 08:15:52;;;;;;;8.18;5.07;;;;;;;17.13;27.52;100808.44;5154724;27;20404;-69
2021/12/10 08:18:19;;;;;;;7.18;4.80;;;;;;;17.14;27.21;100802.94;5154664;27;20037;-69
2021/12/10 08:20:44;;;;;;;6.85;4.93;;;;;;;17.13;27.49;100811.13;5152170;27;20030;-69
2021/12/10 08:23:10;;;;;;;10.60;4.88;;;;;;;17.12;27.26;100809.41;5134180;27;20026;-68
2021/12/10 08:25:36;;;;;;;6.45;4.32;;;;;;;17.12;27.27;100815.59;5134001;27;20049;-70
2021/12/10 08:28:04;;;;;;;7.30;4.60;;;;;;;17.11;27.65;100815.75;5137341;27;20434;-69
2021/12/10 08:30:31;;;;;;;9.05;5.63;;;;;;;17.11;27.41;100821.09;5154781;27;20062;-69
2021/12/10 08:32:58;;;;;;;9.07;4.45;;;;;;;17.13;27.07;100821.81;5154219;27;20038;-70
2021/12/10 08:35:29;;;;;;;7.07;4.93;;;;;;;17.16;27.33;100819.72;5154715;27;20037;-69
2021/12/10 08:37:57;;;;;;;7.18;4.70;;;;;;;17.18;27.39;100816.91;5153828;27;20035;-69
2021/12/10 08:40:26;;;;;;;7.07;5.30;;;;;;;17.21;27.29;100820.13;5154269;27;20044;-69
2021/12/10 08:42:53;;;;;;;6.63;4.53;;;;;;;17.21;26.91;100814.78;5153742;27;20075;-69
2021/12/10 08:45:22;;;;;;;6.88;4.57;;;;;;;17.21;27.00;100814.78;5154321;27;20446;-70
2021/12/10 08:47:49;;;;;;;7.00;5.28;;;;;;;17.20;27.05;100812.25;5154337;27;20454;-69
2021/12/10 08:50:22;;;;;;;9.07;5.40;;;;;;;17.18;26.86;100815.09;5154642;27;20099;-69
2021/12/10 08:52:54;;;;;;;8.43;5.35;;;;;;;17.19;26.93;100830.16;5153391;27;20023;-69
2021/12/10 08:55:20;;;;;;;9.20;4.80;;;;;;;17.16;26.96;100827.72;5133493;27;20043;-69
2021/12/10 08:57:46;;;;;;;8.38;5.13;;;;;;;17.16;26.65;100825.06;5133551;27;20572;-69
2021/12/10 09:00:13;;;;;;;7.97;5.00;;;;;;;17.13;26.66;100822.66;5133550;27;20031;-69
2021/12/10 09:02:38;;;;;;;6.90;4.30;;;;;;;17.07;26.25;100820.50;5147424;27;20027;-69
2021/12/10 09:05:07;;;;;;;7.72;5.18;;;;;;;17.02;26.48;100820.06;5153962;27;20236;-69
2021/12/10 09:07:32;;;;;;;7.18;4.38;;;;;;;16.93;26.60;100817.13;5154025;27;20557;-69
2021/12/10 09:09:58;;;;;;;8.05;5.38;;;;;;;16.88;26.88;100819.38;5154292;27;20034;-70
2021/12/10 09:12:26;;;;;;;6.95;4.85;;;;;;;16.87;26.67;100814.13;5154104;27;20072;-70
2021/12/10 09:14:54;;;;;;;7.55;4.68;;;;;;;16.88;26.97;100821.19;5153680;27;20051;-70
2021/12/10 09:17:26;;;;;;;8.68;4.68;;;;;;;16.89;26.41;100815.72;5153473;27;20022;-69
2021/12/10 09:19:57;;;;;;;8.85;5.13;;;;;;;16.90;26.73;100816.56;5167583;27;20425;-70
2021/12/10 09:22:23;;;;;;;7.50;4.85;;;;;;;16.88;26.67;100821.19;5153403;27;20057;-70
2021/12/10 09:24:51;;;;;;;6.93;4.32;;;;;;;16.91;26.89;100807.56;5153853;27;20039;-70
2021/12/10 09:27:17;;;;;;;8.68;5.28;;;;;;;16.91;26.30;100815.59;5153896;27;20628;-69
2021/12/10 09:29:45;;;;;;;8.52;4.53;;;;;;;16.95;26.44;100816.19;5153282;27;20079;-70
2021/12/10 09:32:14;;;;;;;6.65;4.60;;;;;;;16.96;26.83;100810.72;5153444;27;20535;-69
2021/12/10 09:34:40;;;;;;;7.00;4.82;;;;;;;16.96;26.53;100813.41;5153749;27;20033;-68
2021/12/10 09:37:07;;;;;;;8.27;5.15;;;;;;;16.99;26.55;100822.97;5153963;27;20023;-69
2021/12/10 09:39:33;;;;;;;9.77;4.82;;;;;;;16.99;26.62;100817.63;5153052;27;20027;-68
2021/12/10 09:42:01;;;;;;;7.05;4.53;;;;;;;17.02;26.61;100820.06;5154113;27;20031;-69
2021/12/10 09:44:26;;;;;;;8.35;4.80;;;;;;;17.02;26.83;100822.72;5153737;27;20457;-69
2021/12/10 09:46:53;;;;;;;7.05;4.78;;;;;;;17.06;26.60;100821.47;5153867;27;20061;-69
2021/12/10 09:49:23;;;;;;;8.77;4.78;;;;;;;17.09;26.46;100815.84;5153402;27;20034;-68
2021/12/10 09:51:55;;;;;;;7.13;5.43;;;;;;;17.13;26.54;100816.47;5153408;27;20458;-70
2021/12/10 09:54:24;;;;;;;9.82;5.07;;;;;;;17.16;26.51;100821.53;5151326;27;20508;-69
2021/12/10 09:57:01;;;;;;;7.00;5.10;;;;;;;17.16;26.62;100819.72;5157053;27;20075;-70
2021/12/10 09:59:28;;;;;;;7.78;4.47;;;;;;;17.17;26.75;100812.53;5151297;27;20030;-68
2021/12/10 10:01:55;;;;;;;9.98;4.70;;;;;;;17.15;26.96;100822.50;5152116;27;20114;-67
2021/12/10 10:04:23;;;;;;;7.30;4.90;;;;;;;17.13;26.60;100816.47;5155737;27;20031;-68
2021/12/10 10:06:59;;;;;;;7.40;5.03;;;;;;;17.12;26.71;100820.94;5152441;27;20031;-67
2021/12/10 10:09:26;;;;;;;6.57;4.55;;;;;;;17.16;27.00;100824.19;5160917;27;20041;-64
2021/12/10 10:12:20;;;;;;;9.15;5.32;;;;;;;17.23;27.15;100822.69;5156757;27;20019;-65
2021/12/10 10:14:47;;;;;;;7.07;4.50;;;;;;;17.30;27.13;100826.53;5155077;27;20134;-65
2021/12/10 10:17:12;;;;;;;8.00;4.53;;;;;;;17.31;27.55;100827.38;5158859;27;20027;-67
2021/12/10 10:19:40;;;;;;;8.43;4.93;;;;;;;17.28;27.39;100831.16;5156099;27;20037;-65
2021/12/10 10:22:11;;;;;;;8.20;4.45;;;;;;;17.32;27.52;100832.59;5157213;27;20030;-65
2021/12/10 10:24:38;;;;;;;8.95;5.03;;;;;;;17.34;27.52;100841.34;5157440;27;20030;-65
2021/12/10 10:27:16;;;;;;;9.85;5.53;;;;;;;17.33;27.54;100836.97;5157107;27;20034;-66
2021/12/10 10:29:49;;;;;;;10.38;6.00;;;;;;;17.31;27.82;100844.28;5156136;27;20091;-65
2021/12/10 10:32:19;;;;;;;10.20;6.50;;;;;;;17.33;27.99;100842.31;5147413;27;20074;-67
2021/12/10 10:34:48;;;;;;;14.05;6.95;;;;;;;17.36;28.03;100843.88;5156071;27;20065;-64
2021/12/10 10:37:15;;;;;;;12.90;7.07;;;;;;;17.38;27.87;100849.94;5145850;27;20031;-64
2021/12/10 10:39:43;;;;;;;13.80;7.30;;;;;;;17.40;28.08;100847.97;5136320;27;20083;-67
2021/12/10 10:42:16;;;;;;;13.93;7.15;;;;;;;17.41;28.08;100852.34;5136316;27;20496;-65
2021/12/10 10:44:43;;;;;;;18.08;7.85;;;;;;;17.41;28.23;100846.16;5135655;27;20035;-68
2021/12/10 10:47:09;;;;;;;17.15;7.35;;;;;;;17.41;28.37;100843.50;5155497;27;20042;-66
2021/12/10 10:49:40;;;;;;;14.10;7.38;;;;;;;17.42;28.39;100847.88;5169309;27;20548;-67
2021/12/10 10:52:28;;;;;;;17.08;7.63;;;;;;;17.41;28.44;100849.69;5177102;27;20030;-64
2021/12/10 10:54:58;;;;;;;13.20;7.68;;;;;;;17.42;28.19;100846.03;5158535;27;20562;-65
2021/12/10 10:57:29;;;;;;;12.77;6.90;;;;;;;17.41;28.15;100849.69;5156149;27;20030;-66
2021/12/10 10:59:59;;;;;;;15.23;7.60;;;;;;;17.40;28.15;100834.59;5156140;27;20065;-66
2021/12/10 11:02:37;;;;;;;14.93;6.82;;;;;;;17.42;28.36;100853.22;5137810;27;20130;-68
2021/12/10 11:05:10;;;;;;;10.40;6.25;;;;;;;17.40;28.71;100847.97;5155316;27;20037;-65
2021/12/10 11:07:45;;;;;;;11.90;6.68;;;;;;;17.41;28.62;100848.84;5155834;27;20033;-66
2021/12/10 11:10:11;;;;;;;11.85;5.65;;;;;;;17.41;28.33;100847.00;5156407;27;20023;-65
2021/12/10 11:12:41;;;;;;;11.07;6.22;;;;;;;17.41;28.63;100851.53;5155202;27;20054;-65
2021/12/10 11:15:11;;;;;;;10.80;6.60;;;;;;;17.42;28.58;100850.53;5155164;27;20030;-65
2021/12/10 11:17:47;;;;;;;11.93;5.75;;;;;;;17.39;28.77;100849.81;5161018;27;20065;-67
2021/12/10 11:20:27;;;;;;;12.57;6.45;;;;;;;17.41;28.76;100851.53;5163584;27;20023;-67
2021/12/10 11:23:02;;;;;;;15.35;6.55;;;;;;;17.39;28.32;100860.53;5154262;27;20027;-68
2021/12/10 11:25:44;;;;;;;16.45;6.57;;;;;;;17.36;28.42;100846.53;5155721;27;20186;-68
2021/12/10 11:28:14;;;;;;;12.68;7.10;;;;;;;17.37;28.29;100850.91;5155647;27;20022;-67
2021/12/10 11:30:44;;;;;;;16.20;6.85;;;;;;;17.39;28.35;100863.19;5155725;27;20058;-67
2021/12/10 11:33:13;;;;;;;11.98;7.30;;;;;;;17.41;28.15;100851.53;5155857;27;20446;-68
2021/12/10 11:35:39;;;;;;;16.58;6.97;;;;;;;17.39;28.59;100852.50;5155859;27;20485;-69
2021/12/10 11:38:15;;;;;;;16.05;7.10;;;;;;;17.37;28.53;100849.09;5155327;27;20049;-67
2021/12/10 11:40:46;;;;;;;13.80;6.70;;;;;;;17.39;28.32;100851.63;5155857;27;20022;-70
2021/12/10 11:48:44;;;;;;;14.10;6.88;;;;;;;17.42;28.12;100843.34;5155153;27;20122;-69
2021/12/10 11:51:20;;;;;;;12.23;7.47;;;;;;;17.39;27.56;100833.78;5155096;27;20034;-70
2021/12/10 11:53:54;;;;;;;13.95;7.68;;;;;;;17.41;27.75;100833.63;5146901;27;20443;-67
2021/12/10 11:56:34;;;;;;;12.85;6.88;;;;;;;17.41;27.56;100835.47;5116288;27;20493;-67
2021/12/10 11:59:20;;;;;;;16.00;6.40;;;;;;;17.42;27.97;100838.00;5152506;27;20083;-67
2021/12/10 12:02:01;;;;;;;9.98;6.05;;;;;;;17.37;27.82;100833.06;5155469;27;20389;-67